Tampa Trader — 9V2652 — position and weather

sailwx.info

Track history (hours):
 
Tides and Currents Weather Stations Pressure Air Temp Water Temp Dewpoint Dewpoint Depression Visibility Wind Speed Wind Dir Waves Ship Positions

Tampa Trader

Last reported at 2017-Nov-19 22:56 UTC. Time now 2017-Nov-21 12:18 UTC.
Position N 18°14' W 064°60'.

Length 147 m; draft 6.8 m.

Type: Cargo ship. MMSI: 566607000.

Date/timePositionNaut miles runAvg speedWind from/ knotsBaromVisibWave heightAir tempDewpointWater temp
2017-Nov-19 22:56N 18°14' W 064°60'5 0.8
2017-Nov-19 16:12N 18°19' W 064°58'2 9.2
2017-Nov-19 16:00N 18°18' W 064°59'510.7
2017-Nov-19 15:30N 18°18' W 065°05'58 2.9
2017-Nov-18 19:29N 18°26' W 066°06'1 2.1
2017-Nov-18 18:59N 18°27' W 066°06'0 0.1
2017-Nov-18 18:25N 18°27' W 066°06'0 0.0
2017-Nov-18 17:52N 18°27' W 066°06'  
2017-Nov-12 01:29N 10°23' W 075°31'0 0.0
2017-Nov-12 00:53N 10°23' W 075°31'0 0.0
2017-Nov-12 00:23N 10°23' W 075°31'0 0.0
2017-Nov-11 23:59N 10°23' W 075°31'0 0.0
2017-Nov-11 23:29N 10°23' W 075°31'0 0.0
2017-Nov-11 22:59N 10°23' W 075°31'0 0.0
2017-Nov-11 22:29N 10°23' W 075°31'0 0.0
2017-Nov-11 21:59N 10°23' W 075°31'0 0.0
2017-Nov-11 21:29N 10°23' W 075°31'0 0.0
2017-Nov-11 20:59N 10°23' W 075°31'0 0.0
2017-Nov-11 20:29N 10°23' W 075°31'0 0.0
2017-Nov-11 19:59N 10°23' W 075°31'0 0.0
2017-Nov-11 19:29N 10°23' W 075°31'0 0.0
2017-Nov-11 18:59N 10°23' W 075°31'0 0.0
2017-Nov-11 18:29N 10°23' W 075°31'0 0.1
2017-Nov-11 18:00N 10°23' W 075°31'2 3.9
2017-Nov-11 17:30N 10°21' W 075°32'5 9.5
2017-Nov-11 17:00N 10°19' W 075°36'511.1
2017-Nov-11 16:30N 10°25' W 075°37'612.8
2017-Nov-11 16:00N 10°31' W 075°36'712.8
2017-Nov-11 15:29N 10°37' W 075°33'4313.8
2017-Nov-11 12:22N 11°05' W 074°60'614.0
2017-Nov-11 11:55N 11°07' W 074°54'12 0.8
2017-Nov-10 20:51N 10°58' W 074°46'0 0.0
2017-Nov-10 20:30N 10°58' W 074°46'0 0.0
2017-Nov-10 20:00N 10°58' W 074°46'0 0.0
2017-Nov-10 19:30N 10°58' W 074°46'0 0.0
2017-Nov-10 19:00N 10°58' W 074°46'0 0.0
2017-Nov-10 18:30N 10°58' W 074°46'0 0.0
2017-Nov-10 18:00N 10°58' W 074°46'0 0.0
2017-Nov-10 17:30N 10°58' W 074°46'0 0.0
2017-Nov-10 17:00N 10°58' W 074°46'0 0.0
2017-Nov-10 16:30N 10°58' W 074°46'0 0.0
2017-Nov-10 16:00N 10°58' W 074°46'0 0.0
2017-Nov-10 15:30N 10°58' W 074°46'0 0.0
2017-Nov-10 15:00N 10°58' W 074°46'0 0.0
2017-Nov-10 14:30N 10°58' W 074°46'0 0.0
2017-Nov-10 14:00N 10°58' W 074°46'0 0.0
2017-Nov-10 13:30N 10°58' W 074°46'0 0.0
2017-Nov-10 13:00N 10°58' W 074°46'0 0.0
2017-Nov-10 12:30N 10°58' W 074°46'0 0.0
2017-Nov-10 12:00N 10°58' W 074°46'0 0.0
2017-Nov-10 11:30N 10°58' W 074°46'0 0.0
2017-Nov-10 11:00N 10°58' W 074°46'0 0.0
2017-Nov-10 10:09N 10°58' W 074°46'0 0.1
2017-Nov-10 09:57N 10°58' W 074°46'0 0.0
2017-Nov-10 09:24N 10°58' W 074°46'0 0.0
2017-Nov-10 08:00N 10°58' W 074°46'  
Track history (hours):
 
Tides and Currents Weather Stations Pressure Air Temp Water Temp Dewpoint Dewpoint Depression Visibility Wind Speed Wind Dir Waves Ship Positions

Tampa Trader

Last reported at 2017-Nov-19 22:56 UTC. Time now 2017-Nov-21 12:18 UTC.
Position N 18°14' W 064°60'.

Length 147 m; draft 6.8 m.

Type: Cargo ship. MMSI: 566607000.

Date/timePositionNaut miles runAvg speedWind from/ knotsBaromVisibWave heightAir tempDewpointWater temp
2017-Nov-19 22:56N 18°14' W 064°60'5 0.8
2017-Nov-19 16:12N 18°19' W 064°58'2 9.2
2017-Nov-19 16:00N 18°18' W 064°59'510.7
2017-Nov-19 15:30N 18°18' W 065°05'58 2.9
2017-Nov-18 19:29N 18°26' W 066°06'1 2.1
2017-Nov-18 18:59N 18°27' W 066°06'0 0.1
2017-Nov-18 18:25N 18°27' W 066°06'0 0.0
2017-Nov-18 17:52N 18°27' W 066°06'  
2017-Nov-12 01:29N 10°23' W 075°31'0 0.0
2017-Nov-12 00:53N 10°23' W 075°31'0 0.0
2017-Nov-12 00:23N 10°23' W 075°31'0 0.0
2017-Nov-11 23:59N 10°23' W 075°31'0 0.0
2017-Nov-11 23:29N 10°23' W 075°31'0 0.0
2017-Nov-11 22:59N 10°23' W 075°31'0 0.0
2017-Nov-11 22:29N 10°23' W 075°31'0 0.0
2017-Nov-11 21:59N 10°23' W 075°31'0 0.0
2017-Nov-11 21:29N 10°23' W 075°31'0 0.0
2017-Nov-11 20:59N 10°23' W 075°31'0 0.0
2017-Nov-11 20:29N 10°23' W 075°31'0 0.0
2017-Nov-11 19:59N 10°23' W 075°31'0 0.0
2017-Nov-11 19:29N 10°23' W 075°31'0 0.0
2017-Nov-11 18:59N 10°23' W 075°31'0 0.0
2017-Nov-11 18:29N 10°23' W 075°31'0 0.1
2017-Nov-11 18:00N 10°23' W 075°31'2 3.9
2017-Nov-11 17:30N 10°21' W 075°32'5 9.5
2017-Nov-11 17:00N 10°19' W 075°36'511.1
2017-Nov-11 16:30N 10°25' W 075°37'612.8
2017-Nov-11 16:00N 10°31' W 075°36'712.8
2017-Nov-11 15:29N 10°37' W 075°33'4313.8
2017-Nov-11 12:22N 11°05' W 074°60'614.0
2017-Nov-11 11:55N 11°07' W 074°54'12 0.8
2017-Nov-10 20:51N 10°58' W 074°46'0 0.0
2017-Nov-10 20:30N 10°58' W 074°46'0 0.0
2017-Nov-10 20:00N 10°58' W 074°46'0 0.0
2017-Nov-10 19:30N 10°58' W 074°46'0 0.0
2017-Nov-10 19:00N 10°58' W 074°46'0 0.0
2017-Nov-10 18:30N 10°58' W 074°46'0 0.0
2017-Nov-10 18:00N 10°58' W 074°46'0 0.0
2017-Nov-10 17:30N 10°58' W 074°46'0 0.0
2017-Nov-10 17:00N 10°58' W 074°46'0 0.0
2017-Nov-10 16:30N 10°58' W 074°46'0 0.0
2017-Nov-10 16:00N 10°58' W 074°46'0 0.0
2017-Nov-10 15:30N 10°58' W 074°46'0 0.0
2017-Nov-10 15:00N 10°58' W 074°46'0 0.0
2017-Nov-10 14:30N 10°58' W 074°46'0 0.0
2017-Nov-10 14:00N 10°58' W 074°46'0 0.0
2017-Nov-10 13:30N 10°58' W 074°46'0 0.0
2017-Nov-10 13:00N 10°58' W 074°46'0 0.0
2017-Nov-10 12:30N 10°58' W 074°46'0 0.0
2017-Nov-10 12:00N 10°58' W 074°46'0 0.0
2017-Nov-10 11:30N 10°58' W 074°46'0 0.0
2017-Nov-10 11:00N 10°58' W 074°46'0 0.0
2017-Nov-10 10:09N 10°58' W 074°46'0 0.1
2017-Nov-10 09:57N 10°58' W 074°46'0 0.0
2017-Nov-10 09:24N 10°58' W 074°46'0 0.0
2017-Nov-10 08:00N 10°58' W 074°46'  

Dump ship's entire track history